Time;durP1;ratioP1;P1;durP2;ratioP2;P2;SDS_P1;SDS_P2;PMS_P1;PMS_P2;Temp;Humidity;BMP_temperature;BMP_pressure;BME280_temperature;BME280_humidity;BME280_pressure;Samples;Min_cycle;Max_cycle;Signal;HPM_P1;HPM_P2
2023/08/17 00:01:06;;;;;;;20.90;7.70;;;;;;;31.85;38.05;99177.26;135844;1275;22536;-67
2023/08/17 00:04:11;;;;;;;20.30;8.30;;;;;;;31.82;38.04;99175.40;135967;1275;22504;-65
2023/08/17 00:07:13;;;;;;;21.90;8.20;;;;;;;31.73;38.24;99172.61;135945;1275;22539;-64
2023/08/17 00:10:16;;;;;;;22.10;7.90;;;;;;;31.69;38.26;99171.53;135909;1275;22522;-65
2023/08/17 00:13:18;;;;;;;21.80;7.90;;;;;;;31.60;38.48;99176.70;135980;1257;22519;-67
2023/08/17 00:16:21;;;;;;;21.00;8.20;;;;;;;31.51;38.44;99174.38;135973;1275;22548;-66
2023/08/17 00:19:24;;;;;;;21.90;8.40;;;;;;;31.61;38.45;99175.27;135933;1275;22516;-64
2023/08/17 00:22:27;;;;;;;20.30;8.00;;;;;;;31.51;38.54;99173.92;135933;1258;22524;-64
2023/08/17 00:25:29;;;;;;;21.70;8.10;;;;;;;31.29;38.95;99173.80;135978;1275;22549;-64
2023/08/17 00:28:31;;;;;;;21.20;8.40;;;;;;;31.48;38.62;99173.77;135967;1275;22546;-64
2023/08/17 00:31:34;;;;;;;20.60;8.10;;;;;;;31.52;38.64;99176.38;135961;1275;22535;-62
2023/08/17 00:34:36;;;;;;;23.40;8.40;;;;;;;31.45;38.77;99171.93;135919;1275;22526;-66
2023/08/17 00:37:39;;;;;;;20.30;7.90;;;;;;;31.58;38.65;99170.46;135928;1275;22641;-64
2023/08/17 00:40:41;;;;;;;22.90;8.90;;;;;;;31.55;38.70;99169.67;135951;1275;22537;-63
2023/08/17 00:43:43;;;;;;;22.70;8.70;;;;;;;31.53;38.78;99171.90;135942;1275;22619;-65
2023/08/17 00:46:46;;;;;;;23.60;8.70;;;;;;;31.28;39.30;99175.76;135976;1275;22611;-64
2023/08/17 00:49:49;;;;;;;23.70;9.50;;;;;;;31.23;39.35;99173.24;135936;1275;25333;-65
2023/08/17 00:52:51;;;;;;;21.20;8.50;;;;;;;31.28;39.28;99175.27;135943;1275;22540;-65
2023/08/17 00:55:54;;;;;;;22.20;8.70;;;;;;;31.14;39.50;99169.23;135952;1258;22533;-65
2023/08/17 00:58:56;;;;;;;20.40;8.80;;;;;;;31.08;39.59;99170.47;135962;1275;22517;-66
2023/08/17 01:01:59;;;;;;;24.60;8.70;;;;;;;31.24;39.36;99176.55;73203;1275;1005494;-63
2023/08/17 01:05:01;;;;;;;20.60;8.30;;;;;;;31.28;39.34;99178.36;67939;1275;1016381;-63
2023/08/17 01:08:04;;;;;;;21.30;8.50;;;;;;;31.17;39.50;99179.30;67944;1275;1016430;-59
2023/08/17 01:11:06;;;;;;;23.00;8.20;;;;;;;31.23;39.50;99184.31;67920;1275;1016180;-60
2023/08/17 01:14:09;;;;;;;20.70;7.90;;;;;;;31.35;39.40;99179.84;67888;1275;1016142;-60
2023/08/17 01:17:11;;;;;;;21.80;8.50;;;;;;;31.38;39.26;99182.99;67891;1275;1016399;-60
2023/08/17 01:20:13;;;;;;;21.90;7.80;;;;;;;31.30;39.48;99184.52;67964;1275;1016417;-60
2023/08/17 01:23:16;;;;;;;19.90;7.70;;;;;;;31.35;39.51;99187.59;67991;1275;1016369;-60
2023/08/17 01:26:18;;;;;;;19.50;7.30;;;;;;;31.38;39.53;99190.56;67952;1275;1016267;-60
2023/08/17 01:29:21;;;;;;;23.60;8.50;;;;;;;31.39;39.70;99195.41;67925;1275;1016695;-61
2023/08/17 01:32:23;;;;;;;19.90;8.70;;;;;;;31.41;39.47;99183.39;67918;1275;1019183;-60
2023/08/17 01:35:26;;;;;;;20.60;8.30;;;;;;;31.50;39.41;99184.59;67997;1275;1016429;-60
2023/08/17 01:38:28;;;;;;;20.10;8.00;;;;;;;31.54;39.57;99188.20;67935;1275;1016414;-60
2023/08/17 01:41:30;;;;;;;21.10;7.90;;;;;;;31.41;39.67;99186.96;67901;1275;1016481;-60
2023/08/17 01:44:33;;;;;;;20.00;8.30;;;;;;;31.43;39.73;99185.48;67948;1275;1016341;-60
2023/08/17 01:47:35;;;;;;;20.40;7.80;;;;;;;31.52;39.54;99183.54;67905;1275;1017502;-60
2023/08/17 01:50:37;;;;;;;20.80;8.40;;;;;;;31.54;39.58;99181.23;67926;1275;1017621;-60
2023/08/17 01:53:40;;;;;;;22.90;8.00;;;;;;;31.65;39.46;99184.03;67914;1275;1017925;-60
2023/08/17 01:56:42;;;;;;;22.10;8.70;;;;;;;31.72;39.41;99186.86;67946;1275;1016450;-60
2023/08/17 01:59:45;;;;;;;20.70;8.00;;;;;;;31.69;39.55;99189.67;67964;1275;1016446;-60
2023/08/17 02:02:47;;;;;;;22.40;8.10;;;;;;;31.68;39.56;99183.25;67868;1275;1016124;-60
2023/08/17 02:05:49;;;;;;;23.70;8.60;;;;;;;31.60;39.61;99181.10;67884;1275;1016075;-60
2023/08/17 02:08:52;;;;;;;21.40;8.50;;;;;;;31.76;39.40;99177.80;67938;1275;1016181;-60
2023/08/17 02:11:55;;;;;;;22.20;8.60;;;;;;;31.71;39.55;99176.85;67924;1275;1015972;-61
2023/08/17 02:14:57;;;;;;;22.10;8.60;;;;;;;31.71;39.55;99169.67;67926;1275;1016375;-60
2023/08/17 02:18:00;;;;;;;24.90;8.40;;;;;;;31.55;39.67;99168.14;67892;1275;1016466;-60
2023/08/17 02:21:02;;;;;;;21.60;8.00;;;;;;;31.32;39.97;99167.90;67888;1275;1016417;-61
2023/08/17 02:24:04;;;;;;;23.80;8.80;;;;;;;31.32;40.17;99179.16;67983;1275;1015909;-60
2023/08/17 02:27:07;;;;;;;20.60;8.40;;;;;;;31.34;40.16;99188.03;67965;1275;1016418;-61
2023/08/17 02:30:09;;;;;;;22.50;8.20;;;;;;;31.36;40.31;99190.42;67958;1275;1016430;-60
2023/08/17 02:33:11;;;;;;;21.70;8.50;;;;;;;31.37;40.15;99188.24;67900;1275;1017233;-60
2023/08/17 02:36:14;;;;;;;23.60;8.60;;;;;;;31.42;40.00;99186.20;67896;1275;1016165;-60
2023/08/17 02:39:16;;;;;;;26.50;8.80;;;;;;;31.49;40.09;99201.16;67966;1275;1016487;-60
2023/08/17 02:42:19;;;;;;;24.30;8.40;;;;;;;31.47;40.28;99202.71;67962;1275;1016476;-60
2023/08/17 02:45:21;;;;;;;20.90;8.60;;;;;;;31.38;40.29;99205.95;67977;1275;1020048;-60
2023/08/17 02:48:23;;;;;;;21.00;8.40;;;;;;;31.40;40.34;99202.55;67928;1275;1016362;-60
2023/08/17 02:51:26;;;;;;;21.10;8.50;;;;;;;31.43;40.22;99200.36;67918;1275;1016469;-60
2023/08/17 02:54:28;;;;;;;20.10;8.20;;;;;;;31.46;40.18;99207.23;67854;1275;1016468;-60
2023/08/17 02:57:31;;;;;;;20.10;8.50;;;;;;;31.40;40.33;99207.10;67926;1275;1018835;-60
2023/08/17 03:00:33;;;;;;;21.10;8.50;;;;;;;31.36;40.35;99211.72;67925;1275;1016533;-60
2023/08/17 03:03:35;;;;;;;20.80;8.20;;;;;;;31.36;40.35;99222.38;67914;1275;1016285;-60
2023/08/17 03:06:38;;;;;;;20.20;8.50;;;;;;;31.33;40.24;99225.13;67889;1275;1016139;-60
2023/08/17 03:09:40;;;;;;;23.10;8.30;;;;;;;31.25;40.23;99222.39;67901;1275;1016278;-60
2023/08/17 03:12:43;;;;;;;22.10;8.30;;;;;;;31.30;40.26;99222.56;67923;1275;1020315;-60
2023/08/17 03:15:45;;;;;;;20.70;8.20;;;;;;;31.42;39.96;99221.52;67962;1275;1016280;-60
2023/08/17 03:18:48;;;;;;;25.20;9.00;;;;;;;31.53;39.92;99228.44;67960;1275;1017512;-61
2023/08/17 03:21:50;;;;;;;20.90;7.90;;;;;;;31.56;39.97;99230.14;67878;1275;1016613;-60
2023/08/17 03:24:52;;;;;;;22.10;8.90;;;;;;;31.61;39.86;99226.20;67903;1275;1016407;-60
2023/08/17 03:27:55;;;;;;;23.50;8.70;;;;;;;31.69;39.68;99222.83;67982;1275;1016443;-60
2023/08/17 03:30:57;;;;;;;21.80;8.70;;;;;;;31.78;39.72;99221.08;67941;1275;1016464;-60
2023/08/17 03:34:00;;;;;;;23.80;9.10;;;;;;;31.88;39.61;99224.48;67948;1275;1016422;-60
2023/08/17 03:37:03;;;;;;;21.70;8.30;;;;;;;31.89;39.58;99223.95;67911;1275;1016345;-61
2023/08/17 03:40:05;;;;;;;19.70;8.00;;;;;;;31.82;39.73;99226.27;67960;1275;1016540;-60
2023/08/17 03:43:08;;;;;;;24.50;9.60;;;;;;;31.94;39.64;99227.27;67958;1275;1016253;-60
2023/08/17 03:46:10;;;;;;;22.80;7.90;;;;;;;31.92;39.68;99233.02;67905;1275;1016746;-60
2023/08/17 03:49:12;;;;;;;22.30;8.80;;;;;;;31.94;39.59;99234.70;67883;1275;1016626;-61
2023/08/17 03:52:15;;;;;;;21.30;8.50;;;;;;;31.98;39.74;99236.83;67926;1275;1016537;-60
2023/08/17 03:55:17;;;;;;;23.00;9.60;;;;;;;31.99;39.54;99240.20;67916;1275;1016436;-60
2023/08/17 03:58:20;;;;;;;22.60;8.80;;;;;;;32.02;39.56;99235.66;67939;1275;1019668;-60
2023/08/17 04:01:22;;;;;;;22.00;8.70;;;;;;;32.01;39.49;99233.45;67910;1275;1018039;-61
2023/08/17 04:04:25;;;;;;;22.30;9.40;;;;;;;32.05;39.56;99233.55;67900;1275;1016264;-61
2023/08/17 04:07:27;;;;;;;23.10;8.50;;;;;;;32.12;39.45;99235.82;67956;1275;1018593;-60
2023/08/17 04:10:29;;;;;;;24.90;8.60;;;;;;;32.12;39.49;99242.55;67970;1275;1016427;-60
2023/08/17 04:13:32;;;;;;;22.00;8.50;;;;;;;32.17;39.38;99243.86;67938;1275;1016435;-61
2023/08/17 04:16:34;;;;;;;25.00;9.40;;;;;;;32.23;39.26;99251.48;67929;1275;1016820;-60
2023/08/17 04:19:36;;;;;;;21.00;8.40;;;;;;;32.25;39.19;99255.00;67870;1275;1018846;-60
2023/08/17 04:22:39;;;;;;;19.70;8.10;;;;;;;32.18;39.32;99255.94;67950;1275;1016400;-61
2023/08/17 04:25:42;;;;;;;22.80;8.90;;;;;;;32.16;39.29;99252.88;67937;1275;1016912;-60
2023/08/17 04:28:44;;;;;;;22.90;9.00;;;;;;;32.18;39.38;99257.31;67893;1275;1018533;-60
2023/08/17 04:31:46;;;;;;;22.10;9.00;;;;;;;32.29;39.08;99259.67;67904;1275;1016900;-60
2023/08/17 04:34:49;;;;;;;21.30;8.60;;;;;;;32.32;39.21;99267.58;67925;1275;1016761;-60
2023/08/17 04:37:51;;;;;;;25.00;8.90;;;;;;;32.41;39.17;99265.47;67956;1275;1016924;-60
2023/08/17 04:40:53;;;;;;;21.60;9.00;;;;;;;32.38;39.31;99262.95;67952;1275;1016338;-60
2023/08/17 04:43:56;;;;;;;22.20;8.80;;;;;;;32.24;39.56;99263.64;67891;1275;1015834;-60
2023/08/17 04:46:59;;;;;;;23.60;8.90;;;;;;;31.76;40.36;99262.17;67899;1275;1016411;-61
2023/08/17 04:50:01;;;;;;;23.90;8.70;;;;;;;31.56;40.63;99261.69;67924;1275;1016254;-60
2023/08/17 04:53:03;;;;;;;22.90;8.90;;;;;;;31.62;40.81;99257.83;67916;1275;1017752;-60
2023/08/17 04:56:06;;;;;;;24.70;9.10;;;;;;;31.86;40.64;99260.54;67968;1275;1019154;-60
2023/08/17 04:59:08;;;;;;;20.50;8.70;;;;;;;32.24;39.90;99256.98;67940;1275;1016401;-60
2023/08/17 05:02:11;;;;;;;22.20;8.60;;;;;;;32.11;40.31;99257.58;67924;1275;1016481;-60
2023/08/17 05:05:13;;;;;;;23.40;9.10;;;;;;;31.81;41.32;99263.98;67927;1275;1018089;-61
2023/08/17 05:08:16;;;;;;;23.20;8.90;;;;;;;31.98;41.00;99267.29;67909;1275;1016659;-61
2023/08/17 05:11:18;;;;;;;24.20;9.50;;;;;;;32.13;40.87;99270.42;67962;1275;1016466;-60
2023/08/17 05:14:20;;;;;;;24.20;10.00;;;;;;;32.27;40.56;99275.47;67967;1275;1016239;-60
2023/08/17 05:17:23;;;;;;;22.20;9.00;;;;;;;32.45;40.35;99275.78;67948;1275;1016796;-60
2023/08/17 05:20:25;;;;;;;21.60;8.90;;;;;;;32.55;40.14;99277.63;67948;1275;1018016;-60
2023/08/17 05:23:28;;;;;;;23.20;9.20;;;;;;;32.59;39.98;99275.35;67908;1275;1016448;-60
2023/08/17 05:26:30;;;;;;;22.80;9.40;;;;;;;32.51;40.06;99277.75;67925;1275;1016441;-61
2023/08/17 05:29:32;;;;;;;24.70;9.30;;;;;;;32.52;40.17;99277.95;67975;1275;1016329;-59
2023/08/17 05:32:35;;;;;;;21.30;9.20;;;;;;;32.47;40.48;99278.09;67950;1275;1016473;-60
2023/08/17 05:35:37;;;;;;;22.20;9.40;;;;;;;32.60;40.42;99273.36;67935;1275;1016307;-60
2023/08/17 05:38:39;;;;;;;24.60;9.30;;;;;;;32.57;40.51;99276.64;67922;1275;1018001;-60
2023/08/17 05:41:42;;;;;;;22.50;9.80;;;;;;;32.68;40.47;99274.09;67885;1275;1016797;-60
2023/08/17 05:44:44;;;;;;;21.40;9.70;;;;;;;32.93;40.24;99270.34;67894;1275;1016450;-60
2023/08/17 05:47:47;;;;;;;20.70;8.80;;;;;;;33.38;39.70;99275.98;67953;1275;1018375;-60
2023/08/17 05:50:49;;;;;;;25.30;8.90;;;;;;;33.43;39.33;99279.64;67961;1275;1018245;-60
2023/08/17 05:53:51;;;;;;;22.50;9.60;;;;;;;33.52;39.25;99280.63;67933;1275;1018699;-60
2023/08/17 05:56:54;;;;;;;21.50;9.60;;;;;;;33.60;39.30;99280.33;67922;1275;1016543;-60
2023/08/17 05:59:56;;;;;;;21.30;9.00;;;;;;;33.24;39.81;99277.16;67905;1275;1016426;-60
2023/08/17 06:03:01;;;;;;;21.90;8.60;;;;;;;33.40;39.74;99273.91;67943;1275;1017203;-60
2023/08/17 06:06:03;;;;;;;21.80;8.40;;;;;;;33.33;39.90;99278.92;67946;1275;1016600;-60
2023/08/17 06:09:08;;;;;;;22.00;9.30;;;;;;;33.36;39.75;99282.20;67905;1275;1016170;-61
2023/08/17 06:12:11;;;;;;;21.00;8.90;;;;;;;33.55;39.83;99279.19;67932;1275;1016452;-61
2023/08/17 06:15:16;;;;;;;21.80;8.90;;;;;;;33.76;39.62;99280.25;67961;1275;1016217;-61
2023/08/17 06:18:20;;;;;;;21.60;9.00;;;;;;;33.91;39.69;99288.27;67868;1275;1016461;-60
2023/08/17 06:21:22;;;;;;;22.10;8.20;;;;;;;34.05;39.43;99292.45;67842;1275;1016465;-60
2023/08/17 06:24:25;;;;;;;20.50;8.50;;;;;;;34.16;39.11;99292.30;67893;1275;1016026;-62
2023/08/17 06:27:27;;;;;;;22.90;8.80;;;;;;;34.29;38.82;99296.36;67960;1275;1017527;-62
2023/08/17 06:30:29;;;;;;;27.70;8.90;;;;;;;34.45;38.91;99298.59;67942;1275;1016373;-58
2023/08/17 06:33:32;;;;;;;23.90;8.60;;;;;;;34.71;38.75;99292.08;67922;1253;1016222;-60
2023/08/17 06:36:34;;;;;;;21.70;8.50;;;;;;;35.00;38.39;99286.13;67882;1275;1016181;-61
2023/08/17 06:39:37;;;;;;;20.80;8.00;;;;;;;35.22;38.21;99283.99;67874;1275;1017296;-61
2023/08/17 06:42:40;;;;;;;21.10;8.60;;;;;;;35.57;37.68;99277.58;67900;1275;1016409;-60
2023/08/17 06:45:42;;;;;;;23.00;9.10;;;;;;;35.69;37.59;99278.17;67924;1275;1016477;-58
2023/08/17 06:48:44;;;;;;;21.70;8.30;;;;;;;35.89;37.42;99282.00;67865;1275;1018081;-60
2023/08/17 06:51:47;;;;;;;21.40;8.30;;;;;;;36.03;37.37;99287.02;67873;1275;1016427;-61
2023/08/17 06:54:49;;;;;;;21.10;8.40;;;;;;;36.22;36.98;99291.34;67894;1275;1018122;-60
2023/08/17 06:57:52;;;;;;;22.00;8.10;;;;;;;36.50;36.64;99291.53;67948;1275;1016509;-61
2023/08/17 07:00:54;;;;;;;19.80;8.00;;;;;;;36.61;36.53;99287.40;67963;1275;1016448;-62
2023/08/17 07:03:57;;;;;;;23.20;8.40;;;;;;;36.74;36.49;99286.81;67922;1275;1016630;-60
2023/08/17 07:06:59;;;;;;;19.90;8.40;;;;;;;37.02;36.09;99289.67;67908;1275;1016813;-61
2023/08/17 07:10:02;;;;;;;24.00;8.40;;;;;;;36.99;36.28;99289.86;67936;1275;1016493;-61
2023/08/17 07:13:04;;;;;;;22.50;8.00;;;;;;;37.15;36.26;99282.70;67935;1253;1016201;-61
2023/08/17 07:16:07;;;;;;;21.00;7.90;;;;;;;37.11;36.29;99284.09;67903;1275;1016426;-61
2023/08/17 07:19:10;;;;;;;22.00;8.40;;;;;;;37.47;35.72;99278.38;67887;1275;1016474;-58
2023/08/17 07:22:12;;;;;;;22.80;9.10;;;;;;;37.47;35.87;99278.49;67919;1275;1016481;-61
2023/08/17 07:25:15;;;;;;;27.80;9.10;;;;;;;37.50;35.66;99280.77;67921;1275;1016487;-61
2023/08/17 07:28:17;;;;;;;22.40;8.10;;;;;;;37.46;35.26;99280.95;67869;1275;1016481;-61
2023/08/17 07:31:19;;;;;;;20.80;7.30;;;;;;;37.28;34.84;99285.31;67888;1275;1016381;-61
2023/08/17 07:34:22;;;;;;;24.50;8.50;;;;;;;37.27;34.87;99284.59;67892;1275;1016275;-60
2023/08/17 07:37:31;;;;;;;21.40;7.60;;;;;;;37.30;34.96;99286.82;67950;1275;1016609;-60
2023/08/17 07:40:33;;;;;;;21.80;7.90;;;;;;;37.34;34.73;99288.44;67919;1275;1016484;-61
2023/08/17 07:43:35;;;;;;;20.50;7.80;;;;;;;37.30;35.24;99289.48;67917;1275;1020238;-61
2023/08/17 07:46:38;;;;;;;22.40;8.50;;;;;;;37.17;35.35;99291.23;67929;1275;1019314;-61
2023/08/17 07:49:40;;;;;;;24.20;8.70;;;;;;;37.06;35.29;99285.84;67946;1275;1016930;-61
2023/08/17 07:52:43;;;;;;;22.00;9.90;;;;;;;37.09;35.52;99287.00;67905;1275;1016513;-61
2023/08/17 07:55:45;;;;;;;24.20;8.80;;;;;;;37.12;35.63;99287.09;67927;1275;1016233;-61
2023/08/17 07:58:48;;;;;;;24.20;10.90;;;;;;;36.85;36.26;99282.26;67939;1275;1016497;-61
2023/08/17 08:01:50;;;;;;;27.40;12.00;;;;;;;36.72;36.54;99282.75;67979;1275;1016445;-60
2023/08/17 08:04:53;;;;;;;28.50;13.30;;;;;;;36.79;36.40;99278.41;68035;1275;1016427;-60
2023/08/17 08:07:55;;;;;;;41.20;19.90;;;;;;;36.84;36.16;99284.71;67939;1275;1016506;-61
2023/08/17 08:10:58;;;;;;;28.60;12.60;;;;;;;36.95;36.28;99295.98;67990;1275;1016932;-60
2023/08/17 08:14:00;;;;;;;27.90;10.40;;;;;;;36.90;36.25;99297.89;68057;1275;1016141;-61
2023/08/17 08:17:02;;;;;;;25.10;9.60;;;;;;;37.02;36.13;99300.89;68048;1275;1017152;-61
2023/08/17 08:20:05;;;;;;;24.70;8.60;;;;;;;36.85;36.56;99303.20;68016;1275;1016640;-61
2023/08/17 08:23:07;;;;;;;22.80;9.60;;;;;;;36.84;36.54;99303.83;68002;1275;1016736;-61
2023/08/17 08:26:09;;;;;;;22.50;9.40;;;;;;;36.95;36.36;99304.40;67971;1275;1016440;-60
2023/08/17 08:29:12;;;;;;;22.10;8.40;;;;;;;36.80;36.61;99302.95;67988;1275;1016375;-61
2023/08/17 08:32:14;;;;;;;19.90;8.20;;;;;;;36.77;36.42;99302.54;68036;1275;1016473;-60
2023/08/17 08:35:17;;;;;;;24.20;8.20;;;;;;;36.81;36.43;99297.52;68038;1275;1019231;-61
2023/08/17 08:38:19;;;;;;;21.80;9.50;;;;;;;36.77;36.95;99304.23;67991;1275;1016477;-61
2023/08/17 08:41:22;;;;;;;25.10;9.40;;;;;;;36.71;37.03;99311.09;68015;1274;1016341;-61
2023/08/17 08:44:24;;;;;;;21.80;7.90;;;;;;;36.62;37.02;99308.58;67968;1275;1016413;-58
2023/08/17 08:47:26;;;;;;;22.10;8.40;;;;;;;36.76;36.50;99303.73;67931;1275;1016461;-60
2023/08/17 08:50:29;;;;;;;19.50;8.00;;;;;;;36.87;36.32;99300.36;68019;1275;1016424;-60
2023/08/17 08:53:31;;;;;;;20.80;8.10;;;;;;;36.93;35.83;99297.67;67958;1275;1019307;-60
2023/08/17 08:56:34;;;;;;;24.50;8.90;;;;;;;36.82;36.19;99294.96;67984;1275;1016571;-61
2023/08/17 08:59:36;;;;;;;24.20;8.10;;;;;;;36.88;36.36;99286.02;68003;1275;1016331;-60
2023/08/17 09:02:39;;;;;;;26.00;8.20;;;;;;;36.89;36.00;99283.63;68029;1275;1016245;-61
2023/08/17 09:05:41;;;;;;;23.70;9.00;;;;;;;36.86;36.25;99286.48;68041;1275;1016461;-60
2023/08/17 09:08:44;;;;;;;23.30;9.40;;;;;;;36.78;35.87;99286.96;67971;1275;1016082;-60
2023/08/17 09:11:46;;;;;;;24.00;9.60;;;;;;;37.58;36.09;99284.33;68005;1275;1016211;-60
2023/08/17 09:14:49;;;;;;;25.90;9.60;;;;;;;38.29;34.83;99277.91;68020;1275;1016617;-61
2023/08/17 09:17:51;;;;;;;23.30;9.00;;;;;;;38.52;33.90;99275.95;67964;1275;1016456;-61
2023/08/17 09:20:54;;;;;;;22.20;9.20;;;;;;;38.65;33.88;99270.75;68005;1275;1016421;-61
2023/08/17 09:23:56;;;;;;;20.40;8.00;;;;;;;38.99;33.53;99270.44;67955;1275;1018578;-61
2023/08/17 09:27:00;;;;;;;21.70;8.30;;;;;;;38.97;33.67;99272.58;67990;1275;1017320;-60
2023/08/17 09:30:03;;;;;;;24.70;9.00;;;;;;;38.97;33.49;99273.67;67940;1275;1016675;-61
2023/08/17 09:33:06;;;;;;;22.10;8.20;;;;;;;38.99;33.47;99277.02;67957;1275;1017308;-61
2023/08/17 09:36:08;;;;;;;20.10;8.50;;;;;;;39.28;33.61;99278.70;68009;1275;1016449;-61
2023/08/17 09:39:11;;;;;;;21.00;8.80;;;;;;;39.51;33.57;99278.39;68030;1275;1016408;-61
2023/08/17 09:42:13;;;;;;;21.30;7.50;;;;;;;39.63;32.89;99276.45;68017;1275;1016428;-61
2023/08/17 09:45:15;;;;;;;20.40;7.60;;;;;;;39.85;32.50;99276.10;68017;1275;1016922;-61
2023/08/17 09:48:18;;;;;;;21.70;8.00;;;;;;;40.22;32.40;99270.61;67889;1275;1016141;-61
2023/08/17 09:51:20;;;;;;;22.60;7.90;;;;;;;40.42;31.81;99267.59;67977;1275;1016464;-61
2023/08/17 09:54:23;;;;;;;20.50;7.60;;;;;;;40.60;32.60;99270.23;68039;1274;1016532;-61
2023/08/17 09:57:26;;;;;;;19.70;8.00;;;;;;;40.97;32.17;99271.66;67976;1275;1019490;-61
2023/08/17 10:00:29;;;;;;;21.10;7.80;;;;;;;41.06;31.70;99271.21;67826;1275;1016096;-61
2023/08/17 10:03:31;;;;;;;23.30;8.00;;;;;;;41.32;31.24;99269.90;68015;1275;1016495;-62
2023/08/17 10:06:34;;;;;;;17.00;6.90;;;;;;;41.53;31.38;99265.03;67992;1275;1015894;-60
2023/08/17 10:09:36;;;;;;;19.30;7.10;;;;;;;41.72;31.39;99259.57;68003;1275;1016017;-60
2023/08/17 10:12:38;;;;;;;19.50;7.00;;;;;;;41.73;30.63;99264.97;67985;1275;1016449;-60
2023/08/17 10:15:41;;;;;;;19.70;7.30;;;;;;;41.46;30.53;99260.34;68046;1275;1016918;-60
2023/08/17 10:18:43;;;;;;;18.10;6.80;;;;;;;41.48;30.24;99257.14;68036;1275;1016307;-60
2023/08/17 10:21:46;;;;;;;16.30;5.40;;;;;;;41.79;30.36;99257.36;67990;1275;1016434;-60
2023/08/17 10:24:48;;;;;;;17.10;5.80;;;;;;;42.31;29.32;99255.36;67986;1275;1007198;-61
2023/08/17 10:27:51;;;;;;;17.30;5.40;;;;;;;42.80;28.64;99247.36;68011;1275;1007792;-60
2023/08/17 10:30:54;;;;;;;17.50;5.70;;;;;;;42.99;28.17;99245.17;68021;1275;1009841;-60
2023/08/17 10:33:57;;;;;;;14.50;5.10;;;;;;;43.26;28.19;99244.49;68012;1275;1007535;-60
2023/08/17 10:37:00;;;;;;;15.70;5.10;;;;;;;43.48;27.84;99244.27;68079;1275;1007767;-60
2023/08/17 10:40:03;;;;;;;14.70;5.40;;;;;;;43.53;27.06;99244.36;68005;1275;1007161;-61
2023/08/17 10:43:05;;;;;;;19.70;5.50;;;;;;;43.88;27.01;99245.34;67984;1275;1007939;-60
2023/08/17 10:46:07;;;;;;;16.20;5.40;;;;;;;44.10;27.34;99246.64;68047;1275;1007774;-60
2023/08/17 10:49:10;;;;;;;16.10;5.40;;;;;;;44.12;27.51;99243.47;67997;1275;1008176;-61
2023/08/17 10:52:12;;;;;;;18.90;5.80;;;;;;;44.06;26.83;99247.00;67995;1275;1007635;-61
2023/08/17 10:55:15;;;;;;;18.30;5.40;;;;;;;43.79;26.04;99248.42;67996;1275;1007482;-59
2023/08/17 10:58:17;;;;;;;15.30;5.70;;;;;;;43.74;26.42;99251.38;68073;1275;1007749;-60
2023/08/17 11:01:20;;;;;;;15.50;5.70;;;;;;;43.67;26.57;99250.52;68021;1275;1007697;-60
2023/08/17 11:04:22;;;;;;;14.70;5.60;;;;;;;43.24;26.38;99251.69;68023;1275;1007833;-60
2023/08/17 11:07:28;;;;;;;16.00;5.90;;;;;;;42.89;26.64;99253.42;67955;1275;1008167;-60
2023/08/17 11:10:30;;;;;;;16.40;5.80;;;;;;;42.81;27.14;99254.19;67998;1275;1007862;-60
2023/08/17 11:13:32;;;;;;;16.50;6.30;;;;;;;42.97;27.05;99255.01;67962;1275;1008895;-59
2023/08/17 11:16:35;;;;;;;17.50;5.40;;;;;;;43.30;26.19;99254.92;67939;1275;1008184;-60
2023/08/17 11:19:37;;;;;;;16.50;4.80;;;;;;;43.59;25.58;99258.66;67969;1275;1007759;-60
2023/08/17 11:22:40;;;;;;;15.40;5.20;;;;;;;43.75;25.89;99256.83;67963;1275;1007630;-60
2023/08/17 11:25:42;;;;;;;16.10;4.70;;;;;;;43.83;25.77;99258.76;68038;1275;1016389;-60
2023/08/17 11:28:44;;;;;;;12.90;4.60;;;;;;;44.02;25.23;99252.38;68038;1275;1009288;-60
2023/08/17 11:31:47;;;;;;;17.50;4.80;;;;;;;44.09;24.65;99250.42;68015;1275;1007593;-59
2023/08/17 11:34:49;;;;;;;14.90;4.60;;;;;;;44.15;24.26;99252.86;68016;1275;1007823;-59
2023/08/17 11:37:51;;;;;;;11.70;4.00;;;;;;;44.57;23.96;99249.14;68016;1275;1007503;-59
2023/08/17 11:40:54;;;;;;;18.80;4.80;;;;;;;45.03;23.87;99247.69;68064;1275;1007839;-59
2023/08/17 11:43:56;;;;;;;14.70;4.30;;;;;;;45.27;24.19;99243.14;68073;1275;1008458;-59
2023/08/17 11:46:58;;;;;;;16.50;4.40;;;;;;;45.35;23.09;99240.68;68034;1275;1007838;-60
2023/08/17 11:50:01;;;;;;;13.50;4.40;;;;;;;44.89;22.84;99244.73;68005;1275;1007809;-61
2023/08/17 11:53:04;;;;;;;15.30;4.20;;;;;;;44.53;23.60;99245.09;68031;1275;1007495;-61
2023/08/17 11:56:06;;;;;;;17.70;4.90;;;;;;;44.23;23.43;99244.19;68055;1275;1007756;-60
2023/08/17 11:59:09;;;;;;;17.10;4.80;;;;;;;44.04;23.83;99243.80;68033;1275;1007677;-59
2023/08/17 12:02:12;;;;;;;11.40;4.00;;;;;;;43.92;23.95;99247.29;67991;1275;1015462;-59
2023/08/17 12:05:14;;;;;;;12.30;4.10;;;;;;;43.68;23.46;99245.90;68083;1275;1007699;-60
2023/08/17 12:08:16;;;;;;;14.30;3.90;;;;;;;43.54;24.06;99248.64;68070;1275;1007819;-60
2023/08/17 12:11:19;;;;;;;13.20;4.00;;;;;;;43.69;23.63;99250.75;68066;1275;1015645;-59
2023/08/17 12:14:21;;;;;;;11.10;3.60;;;;;;;43.59;24.06;99247.89;68004;1275;1008260;-60
2023/08/17 12:17:23;;;;;;;10.20;3.70;;;;;;;43.81;23.62;99241.21;68022;1275;1007120;-59
2023/08/17 12:20:26;;;;;;;14.20;3.90;;;;;;;44.10;23.64;99231.13;67901;1275;1007824;-59
2023/08/17 12:23:28;;;;;;;14.40;3.50;;;;;;;44.12;23.38;99226.83;68023;1275;1007788;-59
2023/08/17 12:26:32;;;;;;;13.20;3.60;;;;;;;43.94;23.44;99226.84;68113;1275;1007576;-60
2023/08/17 12:29:35;;;;;;;12.50;4.00;;;;;;;43.97;23.43;99228.55;67917;1275;1016129;-59
2023/08/17 12:32:37;;;;;;;12.10;3.90;;;;;;;44.29;23.56;99224.96;68095;1275;1007835;-60
2023/08/17 12:35:39;;;;;;;14.20;4.20;;;;;;;44.54;23.53;99224.64;68035;1275;1007783;-59
2023/08/17 12:38:44;;;;;;;13.10;4.30;;;;;;;44.64;23.39;99224.31;67989;1275;1007708;-60
2023/08/17 12:41:47;;;;;;;12.00;4.00;;;;;;;44.44;23.24;99224.80;68032;1275;1007800;-60
2023/08/17 12:44:49;;;;;;;12.00;4.10;;;;;;;43.81;22.69;99225.35;68048;1275;1007612;-59
2023/08/17 12:47:52;;;;;;;13.40;4.50;;;;;;;43.62;22.92;99228.95;68011;1274;1007786;-60
2023/08/17 12:50:54;;;;;;;19.30;4.90;;;;;;;43.52;23.20;99231.44;68021;1275;1007778;-60
2023/08/17 12:53:57;;;;;;;12.60;4.50;;;;;;;43.58;23.78;99227.31;68029;1275;1007773;-60
2023/08/17 12:56:59;;;;;;;15.10;4.70;;;;;;;43.80;24.16;99229.09;68069;1275;1016049;-59
2023/08/17 13:00:01;;;;;;;18.10;4.30;;;;;;;44.33;23.88;99217.83;68039;1275;1007600;-60
2023/08/17 13:03:04;;;;;;;13.80;4.20;;;;;;;44.73;23.70;99211.20;67976;1275;1007920;-60
2023/08/17 13:06:06;;;;;;;11.30;4.20;;;;;;;44.66;23.52;99210.62;68006;1275;1008058;-60
2023/08/17 13:09:09;;;;;;;14.00;3.80;;;;;;;44.64;23.49;99211.28;68076;1275;1007826;-60
2023/08/17 13:12:12;;;;;;;15.90;4.30;;;;;;;44.77;23.62;99213.64;68010;1275;1007482;-60
2023/08/17 13:15:14;;;;;;;12.50;4.20;;;;;;;44.78;23.44;99214.25;68004;1275;1007742;-60
2023/08/17 13:18:17;;;;;;;16.80;4.10;;;;;;;45.03;23.30;99214.16;68030;1275;1015511;-60
2023/08/17 13:21:20;;;;;;;17.50;4.30;;;;;;;45.28;23.45;99214.29;67993;1275;1007902;-60
2023/08/17 13:24:22;;;;;;;14.50;4.00;;;;;;;45.18;23.18;99213.95;68027;1275;1007661;-60
2023/08/17 13:27:24;;;;;;;12.60;3.70;;;;;;;45.25;23.20;99215.19;67982;1275;1007862;-60
2023/08/17 13:30:27;;;;;;;13.20;3.90;;;;;;;45.43;23.03;99210.95;67977;1275;1007788;-60
2023/08/17 13:33:29;;;;;;;10.90;3.70;;;;;;;45.20;22.73;99210.03;68018;1275;1007820;-61
2023/08/17 13:36:32;;;;;;;13.50;3.80;;;;;;;44.85;22.96;99209.25;68041;1275;1007131;-60
2023/08/17 13:39:34;;;;;;;8.10;3.40;;;;;;;44.57;22.68;99209.05;68042;1275;1007658;-60
2023/08/17 13:42:36;;;;;;;13.70;4.00;;;;;;;44.32;23.08;99206.76;68022;1275;1008189;-60
2023/08/17 13:45:39;;;;;;;15.00;4.10;;;;;;;44.29;23.19;99208.32;68010;1275;1007629;-60
2023/08/17 13:48:41;;;;;;;10.20;3.80;;;;;;;44.36;23.42;99206.30;68073;1275;1007704;-60